JES3153 SARI-SABE
Flight info
| Callsign | JES3153 |
|---|---|
| Flight time | N/A |
| Altitude | 38000 |
| Route | NAIDE2C NAIDE UT667 GEMSU UN785 GUA UZ129 PAGON PAGON8Q |
| Aircraft | A320/M-SDE3FGHIRWY/LB1 |
Departure
| Time | 2026-04-20 15:16 |
|---|---|
| Airport | Cataratas Del Iguazú International Airport (SARI) |
Arrival
| Time | N/A |
|---|---|
| Airport | Aeroparque Jorge Newbery (SABE) |
| Time | Latitude | Longitude | Altitude | Speed | Heading |
|---|---|---|---|---|---|
| 2026-04-20 14:57 | -25.73208 | -54.47708 | 929 ft | 0 kts | 27° |
| 2026-04-20 15:08 | -25.73221 | -54.47715 | 927 ft | 4 kts | 26° |
| 2026-04-20 15:08 | -25.73245 | -54.47725 | 928 ft | 4 kts | 0° |
| 2026-04-20 15:08 | -25.73260 | -54.47719 | 928 ft | 3 kts | 295° |
| 2026-04-20 15:08 | -25.73271 | -54.47694 | 929 ft | 2 kts | 295° |
| 2026-04-20 15:09 | -25.73272 | -54.47691 | 929 ft | 0 kts | 295° |
| 2026-04-20 15:11 | -25.73271 | -54.47694 | 929 ft | 1 kts | 295° |
| 2026-04-20 15:11 | -25.73264 | -54.47711 | 928 ft | 3 kts | 295° |
| 2026-04-20 15:12 | -25.73251 | -54.47741 | 929 ft | 5 kts | 295° |
| 2026-04-20 15:12 | -25.73233 | -54.47783 | 928 ft | 7 kts | 295° |
| 2026-04-20 15:12 | -25.73219 | -54.47841 | 928 ft | 8 kts | 266° |
| 2026-04-20 15:12 | -25.73225 | -54.47913 | 928 ft | 10 kts | 264° |
| 2026-04-20 15:13 | -25.73232 | -54.47997 | 927 ft | 12 kts | 264° |
| 2026-04-20 15:13 | -25.73240 | -54.48095 | 930 ft | 14 kts | 264° |
| 2026-04-20 15:13 | -25.73249 | -54.48204 | 928 ft | 15 kts | 265° |
| 2026-04-20 15:13 | -25.73259 | -54.48321 | 929 ft | 16 kts | 265° |
| 2026-04-20 15:14 | -25.73265 | -54.48452 | 927 ft | 18 kts | 275° |
| 2026-04-20 15:14 | -25.73207 | -54.48588 | 929 ft | 21 kts | 297° |
| 2026-04-20 15:14 | -25.73133 | -54.48733 | 929 ft | 19 kts | 319° |
| 2026-04-20 15:14 | -25.73103 | -54.48799 | 926 ft | 8 kts | 215° |
| 2026-04-20 15:15 | -25.73138 | -54.48753 | 929 ft | 15 kts | 115° |
| 2026-04-20 15:15 | -25.73280 | -54.48406 | 930 ft | 83 kts | 115° |
| 2026-04-20 15:15 | -25.73605 | -54.47634 | 930 ft | 135 kts | 115° |
| 2026-04-20 15:15 | -25.74045 | -54.46558 | 1107 ft | 159 kts | 112° |
| 2026-04-20 15:16 | -25.74503 | -54.45488 | 1803 ft | 151 kts | 114° |
| 2026-04-20 15:16 | -25.74971 | -54.44443 | 2328 ft | 159 kts | 110° |
| 2026-04-20 15:16 | -25.75504 | -54.43285 | 2844 ft | 171 kts | 109° |
| 2026-04-20 15:16 | -25.76029 | -54.42019 | 3119 ft | 191 kts | 107° |
| 2026-04-20 15:17 | -25.76596 | -54.40587 | 3390 ft | 214 kts | 107° |
| 2026-04-20 15:17 | -25.77484 | -54.39143 | 3577 ft | 246 kts | 139° |
| 2026-04-20 15:17 | -25.79123 | -54.38391 | 3867 ft | 275 kts | 169° |
| 2026-04-20 15:17 | -25.81100 | -54.38206 | 4367 ft | 293 kts | 180° |
| 2026-04-20 15:18 | -25.83156 | -54.38233 | 5163 ft | 297 kts | 182° |
| 2026-04-20 15:18 | -25.85182 | -54.38277 | 6040 ft | 298 kts | 181° |
| 2026-04-20 15:18 | -25.87301 | -54.38265 | 6998 ft | 298 kts | 180° |
| 2026-04-20 15:18 | -25.89373 | -54.38187 | 7864 ft | 299 kts | 178° |
| 2026-04-20 15:19 | -25.91456 | -54.38056 | 8676 ft | 302 kts | 177° |
| 2026-04-20 15:19 | -25.93565 | -54.37891 | 9452 ft | 306 kts | 176° |
| 2026-04-20 15:19 | -25.95687 | -54.37707 | 10263 ft | 309 kts | 175° |
| 2026-04-20 15:19 | -25.97860 | -54.37513 | 10468 ft | 331 kts | 175° |
| 2026-04-20 15:20 | -26.00215 | -54.37301 | 10756 ft | 347 kts | 175° |
| 2026-04-20 15:20 | -26.02649 | -54.37081 | 11292 ft | 354 kts | 176° |
| 2026-04-20 15:20 | -26.05115 | -54.36857 | 11903 ft | 359 kts | 176° |
| 2026-04-20 15:20 | -26.07638 | -54.36632 | 12336 ft | 371 kts | 176° |
| 2026-04-20 15:21 | -26.10274 | -54.36405 | 12467 ft | 390 kts | 176° |
| 2026-04-20 15:21 | -26.13025 | -54.36171 | 12785 ft | 401 kts | 176° |
| 2026-04-20 15:21 | -26.15825 | -54.35930 | 13322 ft | 406 kts | 176° |
| 2026-04-20 15:21 | -26.18660 | -54.35684 | 13864 ft | 411 kts | 176° |
| 2026-04-20 15:22 | -26.21476 | -54.35439 | 14384 ft | 413 kts | 176° |
| 2026-04-20 15:22 | -26.24357 | -54.35364 | 14881 ft | 415 kts | 186° |
| 2026-04-20 15:22 | -26.27193 | -54.35928 | 15360 ft | 416 kts | 198° |
| 2026-04-20 15:22 | -26.29948 | -54.36931 | 15869 ft | 418 kts | 200° |
| 2026-04-20 15:23 | -26.32717 | -54.37959 | 16384 ft | 421 kts | 200° |
| 2026-04-20 15:23 | -26.35504 | -54.38999 | 16903 ft | 424 kts | 201° |
| 2026-04-20 15:23 | -26.38312 | -54.40045 | 17413 ft | 427 kts | 201° |
| 2026-04-20 15:23 | -26.41142 | -54.41098 | 17922 ft | 430 kts | 201° |
| 2026-04-20 15:24 | -26.43956 | -54.42144 | 18399 ft | 433 kts | 201° |
| 2026-04-20 15:24 | -26.46827 | -54.43210 | 18832 ft | 436 kts | 201° |
| 2026-04-20 15:24 | -26.49719 | -54.44284 | 19262 ft | 439 kts | 201° |
| 2026-04-20 15:24 | -26.52630 | -54.45366 | 19682 ft | 442 kts | 201° |
| 2026-04-20 15:25 | -26.55558 | -54.46456 | 20100 ft | 446 kts | 201° |
| 2026-04-20 15:25 | -26.58510 | -54.47555 | 20514 ft | 449 kts | 201° |
| 2026-04-20 15:25 | -26.61483 | -54.48663 | 20888 ft | 453 kts | 201° |
| 2026-04-20 15:25 | -26.64506 | -54.49793 | 21015 ft | 463 kts | 201° |
| 2026-04-20 15:26 | -26.67592 | -54.50947 | 21145 ft | 471 kts | 201° |
| 2026-04-20 15:26 | -26.70618 | -54.52265 | 21272 ft | 475 kts | 210° |
| 2026-04-20 15:26 | -26.73457 | -54.54160 | 21496 ft | 476 kts | 217° |
| 2026-04-20 15:26 | -26.76239 | -54.56187 | 21788 ft | 479 kts | 217° |
| 2026-04-20 15:27 | -26.79031 | -54.58224 | 22060 ft | 481 kts | 216° |
| 2026-04-20 15:27 | -26.81842 | -54.60276 | 22341 ft | 483 kts | 217° |
| 2026-04-20 15:27 | -26.84662 | -54.62335 | 22620 ft | 486 kts | 217° |
| 2026-04-20 15:27 | -26.87501 | -54.64407 | 22917 ft | 488 kts | 217° |
| 2026-04-20 15:28 | -26.90352 | -54.66487 | 23206 ft | 490 kts | 217° |
| 2026-04-20 15:28 | -26.93216 | -54.68577 | 23513 ft | 493 kts | 217° |
| 2026-04-20 15:28 | -26.96054 | -54.70650 | 23780 ft | 495 kts | 217° |
| 2026-04-20 15:28 | -26.98946 | -54.72758 | 24039 ft | 496 kts | 217° |
| 2026-04-20 15:29 | -27.01844 | -54.74875 | 24328 ft | 498 kts | 217° |
| 2026-04-20 15:29 | -27.04742 | -54.77002 | 24605 ft | 498 kts | 217° |
| 2026-04-20 15:29 | -27.07641 | -54.79136 | 24902 ft | 499 kts | 217° |
| 2026-04-20 15:29 | -27.10548 | -54.81275 | 25195 ft | 500 kts | 217° |
| 2026-04-20 15:30 | -27.13460 | -54.83413 | 25497 ft | 500 kts | 217° |
| 2026-04-20 15:30 | -27.16368 | -54.85546 | 25968 ft | 497 kts | 217° |
| 2026-04-20 15:30 | -27.19251 | -54.87659 | 26470 ft | 493 kts | 217° |
| 2026-04-20 15:30 | -27.22076 | -54.89735 | 26961 ft | 490 kts | 217° |
| 2026-04-20 15:31 | -27.24922 | -54.91829 | 27445 ft | 488 kts | 217° |
| 2026-04-20 15:31 | -27.27751 | -54.93913 | 27932 ft | 485 kts | 217° |
| 2026-04-20 15:31 | -27.30562 | -54.95996 | 28420 ft | 482 kts | 218° |
| 2026-04-20 15:31 | -27.33129 | -54.98365 | 28897 ft | 474 kts | 228° |
| 2026-04-20 15:32 | -27.35237 | -55.01174 | 29385 ft | 468 kts | 238° |
| 2026-04-20 15:32 | -27.36857 | -55.04310 | 29916 ft | 461 kts | 245° |
| 2026-04-20 15:32 | -27.38304 | -55.07520 | 30400 ft | 458 kts | 245° |
| 2026-04-20 15:32 | -27.39745 | -55.10706 | 30853 ft | 455 kts | 245° |
| 2026-04-20 15:33 | -27.41160 | -55.13833 | 31304 ft | 453 kts | 245° |
| 2026-04-20 15:33 | -27.42585 | -55.16980 | 31767 ft | 450 kts | 245° |
| 2026-04-20 15:33 | -27.44000 | -55.20111 | 32244 ft | 447 kts | 245° |
| 2026-04-20 15:33 | -27.45399 | -55.23217 | 32723 ft | 444 kts | 245° |
| 2026-04-20 15:34 | -27.46791 | -55.26309 | 33210 ft | 441 kts | 245° |
| 2026-04-20 15:34 | -27.48182 | -55.29398 | 33686 ft | 439 kts | 245° |
| 2026-04-20 15:34 | -27.49537 | -55.32418 | 34135 ft | 436 kts | 245° |
| 2026-04-20 15:34 | -27.50899 | -55.35459 | 34544 ft | 434 kts | 245° |
| 2026-04-20 15:35 | -27.52256 | -55.38490 | 34950 ft | 432 kts | 245° |
| 2026-04-20 15:35 | -27.53606 | -55.41504 | 35357 ft | 430 kts | 245° |
| 2026-04-20 15:35 | -27.54954 | -55.44507 | 35767 ft | 428 kts | 246° |
| 2026-04-20 15:35 | -27.56294 | -55.47494 | 36149 ft | 426 kts | 246° |
| 2026-04-20 15:36 | -27.57627 | -55.50469 | 36515 ft | 425 kts | 246° |
| 2026-04-20 15:36 | -27.58956 | -55.53440 | 36858 ft | 424 kts | 246° |
| 2026-04-20 15:36 | -27.60358 | -55.56363 | 37163 ft | 426 kts | 240° |
| 2026-04-20 15:36 | -27.62177 | -55.58957 | 37468 ft | 431 kts | 230° |
| 2026-04-20 15:37 | -27.64476 | -55.61149 | 37779 ft | 437 kts | 219° |
| 2026-04-20 15:37 | -27.67020 | -55.63047 | 37966 ft | 438 kts | 219° |
| 2026-04-20 15:37 | -27.69562 | -55.64942 | 37993 ft | 438 kts | 219° |
| 2026-04-20 15:38 | -27.74625 | -55.68742 | 37984 ft | 437 kts | 219° |
| 2026-04-20 15:38 | -27.79681 | -55.72551 | 37991 ft | 437 kts | 219° |
| 2026-04-20 15:39 | -27.84743 | -55.76359 | 37991 ft | 437 kts | 219° |
| 2026-04-20 15:39 | -27.89771 | -55.80146 | 38005 ft | 438 kts | 219° |
| 2026-04-20 15:40 | -27.94843 | -55.83975 | 37996 ft | 439 kts | 220° |
| 2026-04-20 15:40 | -27.99926 | -55.87813 | 37992 ft | 440 kts | 220° |
| 2026-04-20 15:41 | -28.05013 | -55.91660 | 37989 ft | 440 kts | 220° |
| 2026-04-20 15:41 | -28.10073 | -55.95491 | 37999 ft | 440 kts | 220° |
| 2026-04-20 15:42 | -28.15166 | -55.99353 | 37998 ft | 441 kts | 220° |
| 2026-04-20 15:42 | -28.20261 | -56.03216 | 38003 ft | 441 kts | 220° |
| 2026-04-20 15:43 | -28.25355 | -56.07080 | 38028 ft | 441 kts | 220° |
| 2026-04-20 15:43 | -28.30414 | -56.10926 | 38030 ft | 440 kts | 220° |
| 2026-04-20 15:44 | -28.35494 | -56.14806 | 38023 ft | 440 kts | 220° |
| 2026-04-20 15:44 | -28.40569 | -56.18675 | 38023 ft | 440 kts | 220° |
| 2026-04-20 15:45 | -28.45662 | -56.22557 | 38022 ft | 440 kts | 220° |
| 2026-04-20 15:45 | -28.50709 | -56.26409 | 38021 ft | 440 kts | 220° |
| 2026-04-20 15:46 | -28.54965 | -56.29669 | 38029 ft | 440 kts | 220° |